Lenoxburg, Kentucky
Current Conditions -  °F | °C
As of 2:53 AM on Thursday 27 Nov 2014 (Local Time) from KLUK Reporting Station
Overcast Overcast  
Wind Chill: 29°   Ceiling: 11000
Heat Index: 29°   Visibility: 9mi
Dew Point: 23°   Wind: 3mph
Humidity: 78%   Direction: NA
Pressure: 30.11"   Gusts: NA
Location:  38.6506°N, 84.351°W
Report Text: KLUK 270753Z AUTO VRB03KT 9SM OVC110 M02/M05 A3011 RMK AO2 SLP199 T10171050
Loading
Personal Weather Stations






























Interactive Weather Map New forecast layout! Learn more

10-Day Weather Forecast

Advertisements
Track Severe Weather on mobile